Almeria, Nebraska
Current Conditions -  °F | °C
As of 9:53 AM on Monday 24 Nov 2014 (Local Time) from KODX Reporting Station
Clear Clear  
Wind Chill: 15°   Ceiling: Unl
Heat Index: 29°   Visibility: 10mi
Dew Point: 15°   Wind: 22mph
Humidity: 56%   Direction: 320°NW
Pressure: 29.79"   Gusts: 33mph
Location:  41.914°N, 99.4547°W
Report Text: KODX 241553Z AUTO 32019G29KT 10SM CLR M02/M09 A2979 RMK AO2 PK WND 32031/1540 SLP106 T10171094
Loading
Personal Weather Stations






























Interactive Weather Map New forecast layout! Learn more

10-Day Weather Forecast

Advertisements
Track Severe Weather on mobile